sensor_id;sensor_type;location;lat;lon;timestamp;P1;durP1;ratioP1;P2;durP2;ratioP2
3267;SDS011;1646;52.450;13.326;2023-07-31T00:00:04;3.33;;;2.20;;
3267;SDS011;1646;52.450;13.326;2023-07-31T00:05:05;3.57;;;1.63;;
3267;SDS011;1646;52.450;13.326;2023-07-31T00:10:07;6.20;;;2.17;;
3267;SDS011;1646;52.450;13.326;2023-07-31T00:15:06;4.30;;;2.30;;
3267;SDS011;1646;52.450;13.326;2023-07-31T00:20:05;5.37;;;2.20;;
3267;SDS011;1646;52.450;13.326;2023-07-31T00:25:04;2.90;;;2.27;;
3267;SDS011;1646;52.450;13.326;2023-07-31T00:30:05;2.47;;;2.20;;
3267;SDS011;1646;52.450;13.326;2023-07-31T00:35:04;7.80;;;2.83;;
3267;SDS011;1646;52.450;13.326;2023-07-31T00:40:03;2.57;;;2.13;;
3267;SDS011;1646;52.450;13.326;2023-07-31T00:45:02;3.70;;;2.40;;
3267;SDS011;1646;52.450;13.326;2023-07-31T00:50:02;2.37;;;2.17;;
3267;SDS011;1646;52.450;13.326;2023-07-31T00:55:01;2.80;;;2.10;;
3267;SDS011;1646;52.450;13.326;2023-07-31T00:59:59;3.93;;;2.10;;
3267;SDS011;1646;52.450;13.326;2023-07-31T01:04:58;5.40;;;2.00;;
3267;SDS011;1646;52.450;13.326;2023-07-31T01:10:10;3.40;;;2.80;;
3267;SDS011;1646;52.450;13.326;2023-07-31T01:15:14;2.60;;;2.40;;
3267;SDS011;1646;52.450;13.326;2023-07-31T01:20:15;8.60;;;3.03;;
3267;SDS011;1646;52.450;13.326;2023-07-31T01:25:19;10.03;;;3.47;;
3267;SDS011;1646;52.450;13.326;2023-07-31T01:30:37;5.00;;;2.87;;
3267;SDS011;1646;52.450;13.326;2023-07-31T01:35:43;3.63;;;2.20;;
3267;SDS011;1646;52.450;13.326;2023-07-31T01:40:42;2.97;;;2.67;;
3267;SDS011;1646;52.450;13.326;2023-07-31T01:45:42;4.50;;;2.40;;
3267;SDS011;1646;52.450;13.326;2023-07-31T01:50:40;3.27;;;2.97;;
3267;SDS011;1646;52.450;13.326;2023-07-31T01:55:39;7.13;;;3.37;;
3267;SDS011;1646;52.450;13.326;2023-07-31T02:00:37;6.57;;;3.20;;
3267;SDS011;1646;52.450;13.326;2023-07-31T02:05:37;3.97;;;2.60;;
3267;SDS011;1646;52.450;13.326;2023-07-31T02:10:42;9.30;;;3.00;;
3267;SDS011;1646;52.450;13.326;2023-07-31T02:15:40;7.60;;;3.30;;
3267;SDS011;1646;52.450;13.326;2023-07-31T02:20:40;3.40;;;2.77;;
3267;SDS011;1646;52.450;13.326;2023-07-31T02:25:38;7.30;;;3.00;;
3267;SDS011;1646;52.450;13.326;2023-07-31T02:30:36;4.47;;;3.27;;
3267;SDS011;1646;52.450;13.326;2023-07-31T02:35:35;3.70;;;2.60;;
3267;SDS011;1646;52.450;13.326;2023-07-31T02:40:34;5.63;;;3.30;;
3267;SDS011;1646;52.450;13.326;2023-07-31T02:45:33;4.17;;;2.60;;
3267;SDS011;1646;52.450;13.326;2023-07-31T02:50:31;11.60;;;3.00;;
3267;SDS011;1646;52.450;13.326;2023-07-31T02:55:29;4.13;;;3.20;;
3267;SDS011;1646;52.450;13.326;2023-07-31T03:00:29;4.73;;;2.80;;
3267;SDS011;1646;52.450;13.326;2023-07-31T03:05:27;4.87;;;3.63;;
3267;SDS011;1646;52.450;13.326;2023-07-31T03:10:25;7.43;;;4.10;;
3267;SDS011;1646;52.450;13.326;2023-07-31T03:15:24;6.57;;;3.63;;
3267;SDS011;1646;52.450;13.326;2023-07-31T03:20:23;4.77;;;4.20;;
3267;SDS011;1646;52.450;13.326;2023-07-31T03:25:22;6.70;;;4.53;;
3267;SDS011;1646;52.450;13.326;2023-07-31T03:30:20;6.00;;;4.33;;
3267;SDS011;1646;52.450;13.326;2023-07-31T03:35:19;7.33;;;4.27;;
3267;SDS011;1646;52.450;13.326;2023-07-31T03:40:18;10.47;;;4.40;;
3267;SDS011;1646;52.450;13.326;2023-07-31T03:45:17;6.60;;;4.07;;
3267;SDS011;1646;52.450;13.326;2023-07-31T03:50:15;6.40;;;3.70;;
3267;SDS011;1646;52.450;13.326;2023-07-31T03:55:14;7.10;;;3.73;;
3267;SDS011;1646;52.450;13.326;2023-07-31T04:00:13;6.20;;;3.47;;
3267;SDS011;1646;52.450;13.326;2023-07-31T04:05:12;9.17;;;4.00;;
3267;SDS011;1646;52.450;13.326;2023-07-31T04:10:10;4.70;;;3.63;;
3267;SDS011;1646;52.450;13.326;2023-07-31T04:15:09;7.43;;;3.50;;
3267;SDS011;1646;52.450;13.326;2023-07-31T04:20:10;6.93;;;3.40;;
3267;SDS011;1646;52.450;13.326;2023-07-31T04:25:08;9.03;;;3.73;;
3267;SDS011;1646;52.450;13.326;2023-07-31T04:30:07;8.17;;;3.53;;
3267;SDS011;1646;52.450;13.326;2023-07-31T04:35:06;4.60;;;3.47;;
3267;SDS011;1646;52.450;13.326;2023-07-31T04:40:07;4.60;;;3.10;;
3267;SDS011;1646;52.450;13.326;2023-07-31T04:45:06;4.73;;;3.50;;
3267;SDS011;1646;52.450;13.326;2023-07-31T04:50:05;6.17;;;3.97;;
3267;SDS011;1646;52.450;13.326;2023-07-31T04:55:04;4.60;;;3.53;;
3267;SDS011;1646;52.450;13.326;2023-07-31T05:00:04;4.93;;;3.27;;
3267;SDS011;1646;52.450;13.326;2023-07-31T05:05:04;6.17;;;4.30;;
3267;SDS011;1646;52.450;13.326;2023-07-31T05:10:02;11.57;;;4.17;;
3267;SDS011;1646;52.450;13.326;2023-07-31T05:15:01;4.93;;;4.00;;
3267;SDS011;1646;52.450;13.326;2023-07-31T05:20:01;4.37;;;3.93;;
3267;SDS011;1646;52.450;13.326;2023-07-31T05:24:59;7.53;;;3.77;;
3267;SDS011;1646;52.450;13.326;2023-07-31T05:29:58;3.80;;;3.37;;
3267;SDS011;1646;52.450;13.326;2023-07-31T05:34:56;7.70;;;3.40;;
3267;SDS011;1646;52.450;13.326;2023-07-31T05:39:56;10.13;;;3.47;;
3267;SDS011;1646;52.450;13.326;2023-07-31T05:44:54;4.83;;;2.73;;
3267;SDS011;1646;52.450;13.326;2023-07-31T05:49:53;6.10;;;3.40;;
3267;SDS011;1646;52.450;13.326;2023-07-31T05:54:51;4.57;;;2.77;;
3267;SDS011;1646;52.450;13.326;2023-07-31T05:59:51;6.70;;;3.07;;
3267;SDS011;1646;52.450;13.326;2023-07-31T06:04:50;5.07;;;2.93;;
3267;SDS011;1646;52.450;13.326;2023-07-31T06:09:48;4.80;;;3.40;;
3267;SDS011;1646;52.450;13.326;2023-07-31T06:14:46;6.33;;;2.67;;
3267;SDS011;1646;52.450;13.326;2023-07-31T06:19:46;4.10;;;2.53;;
3267;SDS011;1646;52.450;13.326;2023-07-31T06:24:45;3.27;;;2.13;;
3267;SDS011;1646;52.450;13.326;2023-07-31T06:29:43;4.97;;;3.20;;
3267;SDS011;1646;52.450;13.326;2023-07-31T06:34:41;3.00;;;2.40;;
3267;SDS011;1646;52.450;13.326;2023-07-31T06:39:41;4.00;;;2.63;;
3267;SDS011;1646;52.450;13.326;2023-07-31T06:44:39;10.37;;;2.43;;
3267;SDS011;1646;52.450;13.326;2023-07-31T06:49:38;2.90;;;2.33;;
3267;SDS011;1646;52.450;13.326;2023-07-31T06:54:36;4.23;;;2.27;;
3267;SDS011;1646;52.450;13.326;2023-07-31T06:59:35;3.20;;;2.30;;
3267;SDS011;1646;52.450;13.326;2023-07-31T07:04:34;3.03;;;2.50;;
3267;SDS011;1646;52.450;13.326;2023-07-31T07:09:32;5.33;;;2.67;;
3267;SDS011;1646;52.450;13.326;2023-07-31T07:14:30;3.73;;;2.40;;
3267;SDS011;1646;52.450;13.326;2023-07-31T07:19:30;4.87;;;2.40;;
3267;SDS011;1646;52.450;13.326;2023-07-31T07:24:28;2.53;;;2.33;;
3267;SDS011;1646;52.450;13.326;2023-07-31T07:29:26;4.50;;;2.20;;
3267;SDS011;1646;52.450;13.326;2023-07-31T07:34:25;5.10;;;2.80;;
3267;SDS011;1646;52.450;13.326;2023-07-31T07:39:25;3.17;;;2.87;;
3267;SDS011;1646;52.450;13.326;2023-07-31T07:44:23;4.00;;;2.20;;
3267;SDS011;1646;52.450;13.326;2023-07-31T07:49:23;2.37;;;1.97;;
3267;SDS011;1646;52.450;13.326;2023-07-31T07:54:21;4.20;;;2.67;;
3267;SDS011;1646;52.450;13.326;2023-07-31T07:59:21;2.00;;;1.80;;
3267;SDS011;1646;52.450;13.326;2023-07-31T08:04:19;2.90;;;2.00;;
3267;SDS011;1646;52.450;13.326;2023-07-31T08:09:18;5.53;;;2.50;;
3267;SDS011;1646;52.450;13.326;2023-07-31T08:14:16;2.93;;;1.97;;
3267;SDS011;1646;52.450;13.326;2023-07-31T08:19:15;2.50;;;2.00;;
3267;SDS011;1646;52.450;13.326;2023-07-31T08:24:14;3.30;;;2.37;;
3267;SDS011;1646;52.450;13.326;2023-07-31T08:29:12;2.77;;;2.30;;
3267;SDS011;1646;52.450;13.326;2023-07-31T08:34:11;3.57;;;2.20;;
3267;SDS011;1646;52.450;13.326;2023-07-31T08:39:10;2.53;;;2.17;;
3267;SDS011;1646;52.450;13.326;2023-07-31T08:44:08;3.60;;;2.53;;
3267;SDS011;1646;52.450;13.326;2023-07-31T08:49:09;3.73;;;2.87;;
3267;SDS011;1646;52.450;13.326;2023-07-31T08:54:08;3.40;;;2.63;;
3267;SDS011;1646;52.450;13.326;2023-07-31T08:59:08;4.80;;;2.17;;
3267;SDS011;1646;52.450;13.326;2023-07-31T09:04:08;4.80;;;2.20;;
3267;SDS011;1646;52.450;13.326;2023-07-31T09:09:08;3.23;;;1.50;;
3267;SDS011;1646;52.450;13.326;2023-07-31T09:14:08;2.63;;;1.53;;
3267;SDS011;1646;52.450;13.326;2023-07-31T09:19:08;1.30;;;1.13;;
3267;SDS011;1646;52.450;13.326;2023-07-31T09:24:06;1.53;;;1.00;;
3267;SDS011;1646;52.450;13.326;2023-07-31T09:29:06;2.40;;;1.03;;
3267;SDS011;1646;52.450;13.326;2023-07-31T09:34:16;1.00;;;0.90;;
3267;SDS011;1646;52.450;13.326;2023-07-31T09:39:15;0.93;;;0.90;;
3267;SDS011;1646;52.450;13.326;2023-07-31T09:44:15;0.80;;;0.80;;
3267;SDS011;1646;52.450;13.326;2023-07-31T09:49:14;3.83;;;1.10;;
3267;SDS011;1646;52.450;13.326;2023-07-31T09:54:12;2.00;;;1.33;;
3267;SDS011;1646;52.450;13.326;2023-07-31T09:59:12;1.47;;;1.47;;
3267;SDS011;1646;52.450;13.326;2023-07-31T10:04:13;5.20;;;2.63;;
3267;SDS011;1646;52.450;13.326;2023-07-31T10:09:13;2.33;;;2.20;;
3267;SDS011;1646;52.450;13.326;2023-07-31T10:14:13;2.63;;;2.43;;
3267;SDS011;1646;52.450;13.326;2023-07-31T10:19:13;3.70;;;3.07;;
3267;SDS011;1646;52.450;13.326;2023-07-31T10:24:11;5.80;;;3.60;;
3267;SDS011;1646;52.450;13.326;2023-07-31T10:29:11;4.17;;;3.00;;
3267;SDS011;1646;52.450;13.326;2023-07-31T10:34:10;4.63;;;3.33;;
3267;SDS011;1646;52.450;13.326;2023-07-31T10:39:37;4.03;;;2.37;;
3267;SDS011;1646;52.450;13.326;2023-07-31T10:44:37;3.13;;;2.53;;
3267;SDS011;1646;52.450;13.326;2023-07-31T10:49:35;5.10;;;3.37;;
3267;SDS011;1646;52.450;13.326;2023-07-31T10:54:38;4.13;;;2.70;;
3267;SDS011;1646;52.450;13.326;2023-07-31T10:59:36;5.13;;;3.03;;
3267;SDS011;1646;52.450;13.326;2023-07-31T11:04:35;5.20;;;2.90;;
3267;SDS011;1646;52.450;13.326;2023-07-31T11:09:33;7.10;;;3.97;;
3267;SDS011;1646;52.450;13.326;2023-07-31T11:14:33;4.70;;;2.80;;
3267;SDS011;1646;52.450;13.326;2023-07-31T11:19:31;4.27;;;2.57;;
3267;SDS011;1646;52.450;13.326;2023-07-31T11:24:29;5.73;;;2.93;;
3267;SDS011;1646;52.450;13.326;2023-07-31T11:29:28;5.03;;;2.90;;
3267;SDS011;1646;52.450;13.326;2023-07-31T11:34:28;3.03;;;2.50;;
3267;SDS011;1646;52.450;13.326;2023-07-31T11:39:26;7.60;;;3.03;;
3267;SDS011;1646;52.450;13.326;2023-07-31T11:44:25;8.33;;;3.03;;
3267;SDS011;1646;52.450;13.326;2023-07-31T11:49:24;7.13;;;3.53;;
3267;SDS011;1646;52.450;13.326;2023-07-31T11:54:24;4.77;;;2.90;;
3267;SDS011;1646;52.450;13.326;2023-07-31T11:59:23;4.93;;;3.10;;
3267;SDS011;1646;52.450;13.326;2023-07-31T12:04:22;5.23;;;2.63;;
3267;SDS011;1646;52.450;13.326;2023-07-31T12:09:22;3.63;;;2.70;;
3267;SDS011;1646;52.450;13.326;2023-07-31T12:14:25;4.07;;;2.60;;
3267;SDS011;1646;52.450;13.326;2023-07-31T12:19:25;2.87;;;2.50;;
3267;SDS011;1646;52.450;13.326;2023-07-31T12:24:26;5.27;;;3.10;;
3267;SDS011;1646;52.450;13.326;2023-07-31T12:29:34;3.90;;;3.20;;
3267;SDS011;1646;52.450;13.326;2023-07-31T12:34:41;6.50;;;2.27;;
3267;SDS011;1646;52.450;13.326;2023-07-31T12:39:40;4.53;;;2.70;;
3267;SDS011;1646;52.450;13.326;2023-07-31T12:44:40;3.70;;;2.40;;
3267;SDS011;1646;52.450;13.326;2023-07-31T12:49:38;3.40;;;2.20;;
3267;SDS011;1646;52.450;13.326;2023-07-31T12:54:36;1.87;;;1.70;;
3267;SDS011;1646;52.450;13.326;2023-07-31T12:59:35;3.10;;;2.00;;
3267;SDS011;1646;52.450;13.326;2023-07-31T13:04:34;4.60;;;2.63;;
3267;SDS011;1646;52.450;13.326;2023-07-31T13:09:33;2.93;;;1.70;;
3267;SDS011;1646;52.450;13.326;2023-07-31T13:14:31;5.07;;;2.57;;
3267;SDS011;1646;52.450;13.326;2023-07-31T13:19:29;3.53;;;2.23;;
3267;SDS011;1646;52.450;13.326;2023-07-31T13:24:29;4.17;;;2.10;;
3267;SDS011;1646;52.450;13.326;2023-07-31T13:29:27;4.13;;;2.57;;
3267;SDS011;1646;52.450;13.326;2023-07-31T13:34:26;5.17;;;2.63;;
3267;SDS011;1646;52.450;13.326;2023-07-31T13:39:24;4.37;;;3.10;;
3267;SDS011;1646;52.450;13.326;2023-07-31T13:44:24;5.73;;;3.60;;
3267;SDS011;1646;52.450;13.326;2023-07-31T13:49:22;4.53;;;2.37;;
3267;SDS011;1646;52.450;13.326;2023-07-31T13:54:21;7.20;;;2.80;;
3267;SDS011;1646;52.450;13.326;2023-07-31T13:59:20;5.30;;;3.03;;
3267;SDS011;1646;52.450;13.326;2023-07-31T14:04:20;5.50;;;3.43;;
3267;SDS011;1646;52.450;13.326;2023-07-31T14:09:18;3.73;;;2.60;;
3267;SDS011;1646;52.450;13.326;2023-07-31T14:14:16;5.23;;;2.80;;
3267;SDS011;1646;52.450;13.326;2023-07-31T14:19:16;4.27;;;3.33;;
3267;SDS011;1646;52.450;13.326;2023-07-31T14:24:16;6.37;;;3.30;;
3267;SDS011;1646;52.450;13.326;2023-07-31T14:29:14;3.30;;;2.80;;
3267;SDS011;1646;52.450;13.326;2023-07-31T14:34:12;4.60;;;2.40;;
3267;SDS011;1646;52.450;13.326;2023-07-31T14:39:10;4.23;;;2.40;;
3267;SDS011;1646;52.450;13.326;2023-07-31T14:44:10;4.00;;;2.50;;
3267;SDS011;1646;52.450;13.326;2023-07-31T14:49:08;11.80;;;2.50;;
3267;SDS011;1646;52.450;13.326;2023-07-31T14:54:07;3.00;;;2.47;;
3267;SDS011;1646;52.450;13.326;2023-07-31T14:59:05;3.83;;;2.97;;
3267;SDS011;1646;52.450;13.326;2023-07-31T15:04:05;9.67;;;3.67;;
3267;SDS011;1646;52.450;13.326;2023-07-31T15:09:04;4.50;;;2.83;;
3267;SDS011;1646;52.450;13.326;2023-07-31T15:14:02;5.83;;;2.80;;
3267;SDS011;1646;52.450;13.326;2023-07-31T15:19:01;4.37;;;2.33;;
3267;SDS011;1646;52.450;13.326;2023-07-31T15:24:00;6.53;;;3.10;;
3267;SDS011;1646;52.450;13.326;2023-07-31T15:29:00;4.80;;;3.00;;
3267;SDS011;1646;52.450;13.326;2023-07-31T15:34:01;4.00;;;3.03;;
3267;SDS011;1646;52.450;13.326;2023-07-31T15:39:01;5.63;;;2.90;;
3267;SDS011;1646;52.450;13.326;2023-07-31T15:44:00;3.10;;;2.80;;
3267;SDS011;1646;52.450;13.326;2023-07-31T15:48:58;4.60;;;3.10;;
3267;SDS011;1646;52.450;13.326;2023-07-31T15:53:59;7.40;;;2.83;;
3267;SDS011;1646;52.450;13.326;2023-07-31T15:58:59;3.00;;;2.70;;
3267;SDS011;1646;52.450;13.326;2023-07-31T16:03:58;7.07;;;3.93;;
3267;SDS011;1646;52.450;13.326;2023-07-31T16:08:56;5.47;;;3.40;;
3267;SDS011;1646;52.450;13.326;2023-07-31T16:13:55;4.13;;;3.60;;
3267;SDS011;1646;52.450;13.326;2023-07-31T16:18:55;5.10;;;2.70;;
3267;SDS011;1646;52.450;13.326;2023-07-31T16:23:53;5.63;;;3.07;;
3267;SDS011;1646;52.450;13.326;2023-07-31T16:28:51;4.47;;;2.73;;
3267;SDS011;1646;52.450;13.326;2023-07-31T16:33:51;4.77;;;2.83;;
3267;SDS011;1646;52.450;13.326;2023-07-31T16:38:50;2.87;;;2.60;;
3267;SDS011;1646;52.450;13.326;2023-07-31T16:43:48;4.27;;;2.70;;
3267;SDS011;1646;52.450;13.326;2023-07-31T16:48:47;2.03;;;1.83;;
3267;SDS011;1646;52.450;13.326;2023-07-31T16:53:47;4.90;;;2.57;;
3267;SDS011;1646;52.450;13.326;2023-07-31T16:58:46;5.87;;;2.63;;
3267;SDS011;1646;52.450;13.326;2023-07-31T17:03:44;4.13;;;2.33;;
3267;SDS011;1646;52.450;13.326;2023-07-31T17:08:43;2.43;;;2.23;;
3267;SDS011;1646;52.450;13.326;2023-07-31T17:13:43;3.37;;;2.30;;
3267;SDS011;1646;52.450;13.326;2023-07-31T17:18:41;4.07;;;2.37;;
3267;SDS011;1646;52.450;13.326;2023-07-31T17:23:39;5.70;;;2.27;;
3267;SDS011;1646;52.450;13.326;2023-07-31T17:28:38;2.63;;;1.83;;
3267;SDS011;1646;52.450;13.326;2023-07-31T17:33:37;2.70;;;1.83;;
3267;SDS011;1646;52.450;13.326;2023-07-31T17:38:36;4.60;;;2.70;;
3267;SDS011;1646;52.450;13.326;2023-07-31T17:43:34;4.40;;;2.47;;
3267;SDS011;1646;52.450;13.326;2023-07-31T17:48:32;3.80;;;2.47;;
3267;SDS011;1646;52.450;13.326;2023-07-31T17:53:32;2.80;;;1.93;;
3267;SDS011;1646;52.450;13.326;2023-07-31T17:58:31;3.13;;;1.80;;
3267;SDS011;1646;52.450;13.326;2023-07-31T18:03:29;3.93;;;2.17;;
3267;SDS011;1646;52.450;13.326;2023-07-31T18:08:28;4.50;;;2.00;;
3267;SDS011;1646;52.450;13.326;2023-07-31T18:13:27;2.30;;;1.60;;
3267;SDS011;1646;52.450;13.326;2023-07-31T18:18:26;3.53;;;1.57;;
3267;SDS011;1646;52.450;13.326;2023-07-31T18:23:24;4.23;;;2.10;;
3267;SDS011;1646;52.450;13.326;2023-07-31T18:28:22;2.27;;;2.07;;
3267;SDS011;1646;52.450;13.326;2023-07-31T18:33:22;3.10;;;2.00;;
3267;SDS011;1646;52.450;13.326;2023-07-31T18:38:20;2.80;;;1.80;;
3267;SDS011;1646;52.450;13.326;2023-07-31T18:43:19;5.57;;;2.20;;
3267;SDS011;1646;52.450;13.326;2023-07-31T18:48:17;3.43;;;2.53;;
3267;SDS011;1646;52.450;13.326;2023-07-31T18:53:16;4.70;;;2.53;;
3267;SDS011;1646;52.450;13.326;2023-07-31T18:58:15;3.20;;;2.60;;
3267;SDS011;1646;52.450;13.326;2023-07-31T19:03:13;4.47;;;2.43;;
3267;SDS011;1646;52.450;13.326;2023-07-31T19:08:12;3.00;;;2.33;;
3267;SDS011;1646;52.450;13.326;2023-07-31T19:13:12;5.63;;;2.83;;
3267;SDS011;1646;52.450;13.326;2023-07-31T19:18:10;5.27;;;2.40;;
3267;SDS011;1646;52.450;13.326;2023-07-31T19:23:09;4.63;;;2.53;;
3267;SDS011;1646;52.450;13.326;2023-07-31T19:28:07;5.37;;;2.83;;
3267;SDS011;1646;52.450;13.326;2023-07-31T19:33:07;4.47;;;3.00;;
3267;SDS011;1646;52.450;13.326;2023-07-31T19:38:05;6.27;;;3.40;;
3267;SDS011;1646;52.450;13.326;2023-07-31T19:43:04;6.93;;;2.70;;
3267;SDS011;1646;52.450;13.326;2023-07-31T19:48:02;6.53;;;3.20;;
3267;SDS011;1646;52.450;13.326;2023-07-31T19:53:02;5.67;;;2.97;;
3267;SDS011;1646;52.450;13.326;2023-07-31T19:58:00;3.40;;;3.10;;
3267;SDS011;1646;52.450;13.326;2023-07-31T20:02:58;4.37;;;3.20;;
3267;SDS011;1646;52.450;13.326;2023-07-31T20:07:57;5.30;;;3.03;;
3267;SDS011;1646;52.450;13.326;2023-07-31T20:12:56;6.53;;;3.13;;
3267;SDS011;1646;52.450;13.326;2023-07-31T20:17:55;3.27;;;2.97;;
3267;SDS011;1646;52.450;13.326;2023-07-31T20:22:54;3.37;;;2.73;;
3267;SDS011;1646;52.450;13.326;2023-07-31T20:27:52;5.73;;;3.53;;
3267;SDS011;1646;52.450;13.326;2023-07-31T20:32:52;4.33;;;2.90;;
3267;SDS011;1646;52.450;13.326;2023-07-31T20:37:50;5.07;;;3.47;;
3267;SDS011;1646;52.450;13.326;2023-07-31T20:42:54;5.90;;;3.10;;
3267;SDS011;1646;52.450;13.326;2023-07-31T20:47:54;5.60;;;3.60;;
3267;SDS011;1646;52.450;13.326;2023-07-31T20:52:53;5.50;;;3.37;;
3267;SDS011;1646;52.450;13.326;2023-07-31T20:57:51;5.33;;;3.40;;
3267;SDS011;1646;52.450;13.326;2023-07-31T21:02:51;7.13;;;3.47;;
3267;SDS011;1646;52.450;13.326;2023-07-31T21:07:51;9.40;;;3.53;;
3267;SDS011;1646;52.450;13.326;2023-07-31T21:12:49;4.80;;;3.50;;
3267;SDS011;1646;52.450;13.326;2023-07-31T21:17:48;4.87;;;3.40;;
3267;SDS011;1646;52.450;13.326;2023-07-31T21:22:46;4.90;;;3.70;;
3267;SDS011;1646;52.450;13.326;2023-07-31T21:27:46;4.43;;;3.20;;
3267;SDS011;1646;52.450;13.326;2023-07-31T21:32:44;7.50;;;3.47;;
3267;SDS011;1646;52.450;13.326;2023-07-31T21:37:42;6.40;;;3.50;;
3267;SDS011;1646;52.450;13.326;2023-07-31T21:42:41;7.80;;;3.80;;
3267;SDS011;1646;52.450;13.326;2023-07-31T21:47:40;6.50;;;3.63;;
3267;SDS011;1646;52.450;13.326;2023-07-31T21:52:56;5.87;;;3.17;;
3267;SDS011;1646;52.450;13.326;2023-07-31T21:57:55;7.73;;;4.17;;
3267;SDS011;1646;52.450;13.326;2023-07-31T22:02:54;7.57;;;3.60;;
3267;SDS011;1646;52.450;13.326;2023-07-31T22:07:53;5.60;;;3.37;;
3267;SDS011;1646;52.450;13.326;2023-07-31T22:12:51;4.60;;;3.17;;
3267;SDS011;1646;52.450;13.326;2023-07-31T22:17:49;5.93;;;3.43;;
3267;SDS011;1646;52.450;13.326;2023-07-31T22:22:49;4.13;;;3.00;;
3267;SDS011;1646;52.450;13.326;2023-07-31T22:27:48;7.00;;;3.20;;
3267;SDS011;1646;52.450;13.326;2023-07-31T22:32:47;5.77;;;3.53;;
3267;SDS011;1646;52.450;13.326;2023-07-31T22:37:46;6.20;;;3.67;;
3267;SDS011;1646;52.450;13.326;2023-07-31T22:42:45;11.40;;;3.60;;
3267;SDS011;1646;52.450;13.326;2023-07-31T22:47:44;4.20;;;3.57;;
3267;SDS011;1646;52.450;13.326;2023-07-31T22:52:42;14.50;;;3.30;;
3267;SDS011;1646;52.450;13.326;2023-07-31T22:57:40;5.70;;;3.77;;
3267;SDS011;1646;52.450;13.326;2023-07-31T23:02:40;6.50;;;3.70;;
3267;SDS011;1646;52.450;13.326;2023-07-31T23:07:38;6.17;;;3.67;;
3267;SDS011;1646;52.450;13.326;2023-07-31T23:12:36;5.00;;;3.20;;
3267;SDS011;1646;52.450;13.326;2023-07-31T23:17:35;8.73;;;4.00;;
3267;SDS011;1646;52.450;13.326;2023-07-31T23:22:35;6.70;;;3.17;;
3267;SDS011;1646;52.450;13.326;2023-07-31T23:27:34;6.70;;;3.20;;
3267;SDS011;1646;52.450;13.326;2023-07-31T23:32:32;7.63;;;3.57;;
3267;SDS011;1646;52.450;13.326;2023-07-31T23:37:30;6.90;;;3.80;;
3267;SDS011;1646;52.450;13.326;2023-07-31T23:42:30;4.17;;;3.50;;
3267;SDS011;1646;52.450;13.326;2023-07-31T23:47:28;7.87;;;3.43;;
3267;SDS011;1646;52.450;13.326;2023-07-31T23:52:27;5.30;;;3.40;;
3267;SDS011;1646;52.450;13.326;2023-07-31T23:57:25;5.93;;;3.30;;
